createdAt,value
2023-02-21T00:00:34.170Z,8.80
2023-02-21T00:03:19.738Z,8.80
2023-02-21T00:06:05.208Z,8.80
2023-02-21T00:08:50.494Z,8.80
2023-02-21T00:11:36.143Z,8.80
2023-02-21T00:14:21.520Z,8.90
2023-02-21T00:17:07.185Z,8.90
2023-02-21T00:19:52.519Z,8.90
2023-02-21T00:22:38.111Z,8.90
2023-02-21T00:25:24.072Z,8.90
2023-02-21T00:28:09.616Z,8.90
2023-02-21T00:30:55.551Z,8.90
2023-02-21T00:33:40.940Z,8.90
2023-02-21T00:36:26.876Z,8.90
2023-02-21T00:39:12.202Z,8.90
2023-02-21T00:41:57.648Z,8.90
2023-02-21T00:44:43.177Z,8.90
2023-02-21T00:47:28.674Z,8.90
2023-02-21T00:50:14.192Z,8.90
2023-02-21T00:52:59.785Z,8.90
2023-02-21T00:55:45.411Z,8.90
2023-02-21T00:58:31.065Z,8.90
2023-02-21T01:01:16.747Z,8.90
2023-02-21T01:04:02.608Z,8.90
2023-02-21T01:06:48.305Z,8.90
2023-02-21T01:09:33.435Z,8.90
2023-02-21T01:12:19.224Z,8.90
2023-02-21T01:15:04.640Z,8.90
2023-02-21T01:17:50.117Z,9.00
2023-02-21T01:20:35.724Z,9.00
2023-02-21T01:23:21.299Z,9.00
2023-02-21T01:26:06.877Z,9.00
2023-02-21T01:28:52.365Z,9.00
2023-02-21T01:31:38.782Z,9.00
2023-02-21T01:34:24.365Z,9.00
2023-02-21T01:37:10.321Z,9.00
2023-02-21T01:39:55.863Z,9.00
2023-02-21T01:42:41.508Z,9.00
2023-02-21T01:45:41.675Z,9.00
2023-02-21T01:48:33.314Z,9.00
2023-02-21T01:51:20.447Z,9.00
2023-02-21T01:54:06.516Z,8.90
2023-02-21T01:56:52.272Z,8.90
2023-02-21T01:59:40.981Z,9.00
2023-02-21T02:02:37.754Z,9.00
2023-02-21T02:05:25.325Z,8.90
2023-02-21T02:08:12.286Z,8.90
2023-02-21T02:10:57.784Z,8.90
2023-02-21T02:14:08.475Z,8.90
2023-02-21T02:16:49.473Z,8.90
2023-02-21T02:19:54.768Z,8.90
2023-02-21T02:22:24.244Z,8.90
2023-02-21T02:25:14.747Z,8.90
2023-02-21T02:28:07.582Z,8.90
2023-02-21T02:30:43.593Z,8.90
2023-02-21T02:33:55.750Z,8.90
2023-02-21T02:36:30.039Z,8.90
2023-02-21T02:38:59.647Z,8.90
2023-02-21T02:41:35.259Z,8.90
2023-02-21T02:44:13.350Z,8.90
2023-02-21T02:46:43.657Z,8.90
2023-02-21T02:49:22.050Z,8.90
2023-02-21T02:51:50.907Z,8.90
2023-02-21T02:54:18.067Z,8.90
2023-02-21T02:56:46.612Z,8.90
2023-02-21T02:59:25.842Z,8.90
2023-02-21T03:02:15.386Z,8.90
2023-02-21T03:05:01.391Z,8.90
2023-02-21T03:07:46.757Z,8.90
2023-02-21T03:10:19.471Z,8.90
2023-02-21T03:13:23.952Z,8.90
2023-02-21T03:16:18.661Z,8.90
2023-02-21T03:18:50.609Z,8.90
2023-02-21T03:21:25.041Z,8.90
2023-02-21T03:23:54.723Z,8.90
2023-02-21T03:26:21.592Z,8.90
2023-02-21T03:28:50.632Z,8.90
2023-02-21T03:31:21.846Z,8.90
2023-02-21T03:33:48.694Z,8.90
2023-02-21T03:36:16.131Z,8.90
2023-02-21T03:38:43.038Z,8.90
2023-02-21T03:41:12.103Z,8.90
2023-02-21T03:43:39.094Z,9.00
2023-02-21T03:46:05.921Z,9.00
2023-02-21T03:48:33.045Z,8.90
2023-02-21T03:51:00.348Z,9.00
2023-02-21T03:53:27.288Z,9.00
2023-02-21T03:55:54.156Z,9.00
2023-02-21T03:58:21.022Z,9.00
2023-02-21T04:00:48.173Z,9.00
2023-02-21T04:03:14.996Z,9.00
2023-02-21T04:05:41.774Z,9.00
2023-02-21T04:08:10.269Z,9.00
2023-02-21T04:10:46.847Z,9.00
2023-02-21T04:13:20.077Z,9.00
2023-02-21T04:15:46.936Z,9.00
2023-02-21T04:18:13.865Z,9.00
2023-02-21T04:20:40.678Z,9.00
2023-02-21T04:23:07.751Z,9.00
2023-02-21T04:25:34.530Z,9.00
2023-02-21T04:28:01.348Z,9.00
2023-02-21T04:30:28.280Z,9.00
2023-02-21T04:32:55.096Z,9.00
2023-02-21T04:35:21.919Z,9.00
2023-02-21T04:37:48.714Z,9.00
2023-02-21T04:40:15.698Z,9.00
2023-02-21T04:42:42.502Z,9.00
2023-02-21T04:45:09.938Z,9.00
2023-02-21T04:47:36.786Z,9.00
2023-02-21T04:50:04.493Z,9.00
2023-02-21T04:52:31.592Z,9.00
2023-02-21T04:54:58.482Z,9.00
2023-02-21T04:57:25.740Z,9.00
2023-02-21T05:00:01.563Z,9.00
2023-02-21T05:02:28.691Z,9.00
2023-02-21T05:04:55.557Z,9.00
2023-02-21T05:07:22.416Z,9.00
2023-02-21T05:09:49.713Z,9.00
2023-02-21T05:12:16.583Z,9.00
2023-02-21T05:14:43.585Z,9.00
2023-02-21T05:17:10.462Z,9.00
2023-02-21T05:19:37.264Z,9.00
2023-02-21T05:22:07.187Z,9.00
2023-02-21T05:24:35.168Z,9.00
2023-02-21T05:27:02.061Z,9.00
2023-02-21T05:29:29.745Z,9.00
2023-02-21T05:31:56.845Z,9.00
2023-02-21T05:34:23.825Z,9.00
2023-02-21T05:36:50.769Z,9.00
2023-02-21T05:39:17.746Z,9.00
2023-02-21T05:41:51.914Z,9.00
2023-02-21T05:44:18.862Z,9.00
2023-02-21T05:46:46.182Z,9.00
2023-02-21T05:49:13.172Z,9.00
2023-02-21T05:51:42.516Z,9.00
2023-02-21T05:54:12.235Z,9.00
2023-02-21T05:56:40.665Z,9.00
2023-02-21T05:59:07.556Z,9.00
2023-02-21T06:01:34.519Z,9.10
2023-02-21T06:04:01.300Z,9.10
2023-02-21T06:06:28.104Z,9.10
2023-02-21T06:08:54.980Z,9.00
2023-02-21T06:11:28.275Z,9.10
2023-02-21T06:13:57.176Z,9.00
2023-02-21T06:16:25.036Z,9.00
2023-02-21T06:18:54.924Z,9.10
2023-02-21T06:21:21.981Z,9.10
2023-02-21T06:23:49.472Z,9.10
2023-02-21T06:26:17.746Z,9.00
2023-02-21T06:28:44.603Z,9.10
2023-02-21T06:31:11.628Z,9.10
2023-02-21T06:33:38.652Z,9.10
2023-02-21T06:36:12.196Z,9.10
2023-02-21T06:38:39.373Z,9.10
2023-02-21T06:41:09.490Z,9.10
2023-02-21T06:43:39.397Z,9.10
2023-02-21T06:46:06.230Z,9.10
2023-02-21T06:48:33.129Z,9.10
2023-02-21T06:50:59.975Z,9.10
2023-02-21T06:53:26.944Z,9.10
2023-02-21T06:55:53.754Z,9.10
2023-02-21T06:58:20.566Z,9.10
2023-02-21T07:00:47.517Z,9.10
2023-02-21T07:03:14.353Z,9.10
2023-02-21T07:05:41.145Z,9.20
2023-02-21T07:08:08.113Z,9.10
2023-02-21T07:10:34.985Z,9.20
2023-02-21T07:13:01.806Z,9.20
2023-02-21T07:15:28.729Z,9.10
2023-02-21T07:17:55.552Z,9.20
2023-02-21T07:20:22.370Z,9.20
2023-02-21T07:22:49.194Z,9.10
2023-02-21T07:25:18.061Z,9.20
2023-02-21T07:27:46.680Z,9.20
2023-02-21T07:30:14.711Z,9.20
2023-02-21T07:32:41.625Z,9.20
2023-02-21T07:35:08.713Z,9.20
2023-02-21T07:37:35.646Z,9.20
2023-02-21T07:40:02.577Z,9.20
2023-02-21T07:42:29.461Z,9.30
2023-02-21T07:44:59.564Z,9.20
2023-02-21T07:47:27.247Z,9.30
2023-02-21T07:49:54.891Z,9.30
2023-02-21T07:52:23.155Z,9.30
2023-02-21T07:54:50.209Z,9.30
2023-02-21T07:57:17.865Z,9.30
2023-02-21T07:59:45.001Z,9.30
2023-02-21T08:02:12.882Z,9.30
2023-02-21T08:04:40.530Z,9.30
2023-02-21T08:07:08.394Z,9.30
2023-02-21T08:09:36.407Z,9.30
2023-02-21T08:12:03.829Z,9.30
2023-02-21T08:14:30.684Z,9.30
2023-02-21T08:16:57.460Z,9.40
2023-02-21T08:19:24.322Z,9.30
2023-02-21T08:21:51.210Z,9.40
2023-02-21T08:24:19.179Z,9.30
2023-02-21T08:26:46.554Z,9.40
2023-02-21T08:29:15.014Z,9.40
2023-02-21T08:31:44.385Z,9.40
2023-02-21T08:34:12.022Z,9.40
2023-02-21T08:36:41.685Z,9.40
2023-02-21T08:39:09.546Z,9.40
2023-02-21T08:41:48.502Z,9.40
2023-02-21T08:44:17.446Z,9.40
2023-02-21T08:46:45.020Z,9.50
2023-02-21T08:49:11.908Z,9.50
2023-02-21T08:51:40.109Z,9.50
2023-02-21T08:54:07.831Z,9.60
2023-02-21T08:56:35.070Z,9.60
2023-02-21T08:59:03.610Z,9.50
2023-02-21T09:01:33.456Z,9.60
2023-02-21T09:04:00.735Z,9.50
2023-02-21T09:06:27.665Z,9.60
2023-02-21T09:08:55.098Z,9.50
2023-02-21T09:11:21.887Z,9.50
2023-02-21T09:13:48.724Z,9.60
2023-02-21T09:16:15.630Z,9.60
2023-02-21T09:18:42.408Z,9.60
2023-02-21T09:21:09.329Z,9.60
2023-02-21T09:23:36.103Z,9.60
2023-02-21T09:26:02.962Z,9.60
2023-02-21T09:28:31.566Z,9.60
2023-02-21T09:30:58.499Z,9.60
2023-02-21T09:33:25.469Z,9.60
2023-02-21T09:35:54.039Z,9.60
2023-02-21T09:38:20.875Z,9.60
2023-02-21T09:41:07.011Z,9.60
2023-02-21T09:43:43.186Z,9.60
2023-02-21T09:46:39.044Z,9.60
2023-02-21T09:49:41.113Z,9.60
2023-02-21T09:52:27.431Z,9.60
2023-02-21T09:54:58.626Z,9.60
2023-02-21T09:57:25.793Z,9.60
2023-02-21T09:59:52.599Z,9.60
2023-02-21T10:02:38.092Z,9.60
2023-02-21T10:05:15.369Z,9.50
2023-02-21T10:08:03.210Z,9.50
2023-02-21T10:10:38.666Z,9.60
2023-02-21T10:13:27.459Z,9.60
2023-02-21T10:16:12.752Z,9.60
2023-02-21T10:18:54.601Z,9.50
2023-02-21T10:21:36.052Z,9.60
2023-02-21T10:24:10.721Z,9.60
2023-02-21T10:26:42.560Z,9.60
2023-02-21T10:29:26.171Z,9.60
2023-02-21T10:32:00.884Z,9.60
2023-02-21T10:34:29.776Z,9.60
2023-02-21T10:37:05.112Z,9.60
2023-02-21T10:39:40.053Z,9.60
2023-02-21T10:42:13.787Z,9.60
2023-02-21T10:44:40.916Z,9.60
2023-02-21T10:47:30.075Z,9.70
2023-02-21T10:50:06.012Z,9.60
2023-02-21T10:52:51.072Z,9.70
2023-02-21T10:55:32.371Z,9.60
2023-02-21T10:58:08.833Z,9.70
2023-02-21T11:00:47.724Z,9.70
2023-02-21T11:03:27.394Z,9.70
2023-02-21T11:05:59.752Z,9.70
2023-02-21T11:08:37.805Z,9.90
2023-02-21T11:11:05.192Z,10.00
2023-02-21T11:13:33.420Z,10.00
2023-02-21T11:16:20.258Z,10.20
2023-02-21T11:18:47.102Z,10.30
2023-02-21T11:21:17.245Z,10.40
2023-02-21T11:23:59.155Z,10.60
2023-02-21T11:26:28.082Z,10.70
2023-02-21T11:28:54.937Z,10.90
2023-02-21T11:31:31.258Z,11.00
2023-02-21T11:34:11.559Z,11.10
2023-02-21T11:36:46.882Z,11.20
2023-02-21T11:39:23.601Z,11.20
2023-02-21T11:42:03.212Z,11.20
2023-02-21T11:44:38.962Z,11.20
2023-02-21T11:47:40.489Z,11.30
2023-02-21T11:50:25.407Z,11.30
2023-02-21T11:53:15.188Z,11.30
2023-02-21T11:55:58.183Z,11.30
2023-02-21T11:58:41.957Z,11.30
2023-02-21T12:01:15.962Z,11.30
2023-02-21T12:04:15.004Z,11.30
2023-02-21T12:06:50.144Z,11.30
2023-02-21T12:09:31.152Z,11.30
2023-02-21T12:12:04.435Z,11.40
2023-02-21T12:14:51.029Z,11.40
2023-02-21T12:17:27.153Z,11.40
2023-02-21T12:19:57.119Z,11.50
2023-02-21T12:23:04.985Z,11.50
2023-02-21T12:25:56.876Z,11.50
2023-02-21T12:28:53.841Z,11.50
2023-02-21T12:31:33.017Z,11.60
2023-02-21T12:34:41.175Z,11.50
2023-02-21T12:37:10.604Z,11.50
2023-02-21T12:39:54.263Z,11.60
2023-02-21T12:42:46.576Z,11.70
2023-02-21T12:45:16.144Z,11.60
2023-02-21T12:48:21.345Z,11.60
2023-02-21T12:50:55.287Z,11.50
2023-02-21T12:53:34.328Z,11.30
2023-02-21T12:56:11.949Z,11.30
2023-02-21T12:58:48.092Z,11.30
2023-02-21T13:01:22.465Z,11.30
2023-02-21T13:04:20.881Z,11.20
2023-02-21T13:07:08.037Z,11.10
2023-02-21T13:09:40.594Z,11.10
2023-02-21T13:12:13.800Z,11.20
2023-02-21T13:15:12.667Z,11.20
2023-02-21T13:17:40.848Z,11.20
2023-02-21T13:20:17.939Z,11.20
2023-02-21T13:23:40.715Z,11.20
2023-02-21T13:26:16.808Z,11.10
2023-02-21T13:28:45.886Z,11.20
2023-02-21T13:31:42.276Z,11.10
2023-02-21T13:34:14.836Z,11.10
2023-02-21T13:36:46.551Z,11.10
2023-02-21T13:39:38.348Z,11.20
2023-02-21T13:42:09.990Z,11.10
2023-02-21T13:44:40.629Z,11.10
2023-02-21T13:47:15.941Z,11.10
2023-02-21T13:50:20.900Z,11.10
2023-02-21T13:52:53.827Z,11.10
2023-02-21T13:55:22.106Z,11.10
2023-02-21T13:58:00.419Z,11.10
2023-02-21T14:00:27.723Z,11.20
2023-02-21T14:03:06.220Z,11.30
2023-02-21T14:05:45.964Z,11.30
2023-02-21T14:08:32.257Z,11.30
2023-02-21T14:11:06.594Z,11.30
2023-02-21T14:13:54.598Z,11.30
2023-02-21T14:16:36.838Z,11.30
2023-02-21T14:19:09.424Z,11.20
2023-02-21T14:21:44.691Z,11.20
2023-02-21T14:24:11.495Z,11.10
2023-02-21T14:26:56.884Z,11.10
2023-02-21T14:29:41.825Z,11.00
2023-02-21T14:32:08.850Z,11.00
2023-02-21T14:34:47.787Z,10.90
2023-02-21T14:37:39.059Z,11.00
2023-02-21T14:40:14.653Z,10.90
2023-02-21T14:42:49.727Z,10.90
2023-02-21T14:45:41.413Z,10.90
2023-02-21T14:48:33.951Z,10.90
2023-02-21T14:51:12.888Z,10.80
2023-02-21T14:54:09.518Z,10.90
2023-02-21T14:57:34.983Z,10.90
2023-02-21T15:00:16.255Z,10.90
2023-02-21T15:03:08.987Z,10.90
2023-02-21T15:05:50.141Z,10.90
2023-02-21T15:08:26.270Z,10.90
2023-02-21T15:10:58.917Z,10.80
2023-02-21T15:13:27.739Z,10.90
2023-02-21T15:16:08.145Z,10.90
2023-02-21T15:19:00.483Z,10.80
2023-02-21T15:21:27.712Z,10.80
2023-02-21T15:24:03.475Z,10.70
2023-02-21T15:26:32.187Z,10.70
2023-02-21T15:29:11.510Z,10.70
2023-02-21T15:31:50.241Z,10.60
2023-02-21T15:34:21.440Z,10.60
2023-02-21T15:37:00.353Z,10.60
2023-02-21T15:39:34.785Z,10.60
2023-02-21T15:42:05.459Z,10.50
2023-02-21T15:44:39.878Z,10.50
2023-02-21T15:47:22.513Z,10.50
2023-02-21T15:49:52.294Z,10.50
2023-02-21T15:52:51.577Z,10.50
2023-02-21T15:55:23.937Z,10.50
2023-02-21T15:58:07.210Z,10.50
2023-02-21T16:00:39.568Z,10.40
2023-02-21T16:03:28.335Z,10.40
2023-02-21T16:06:14.549Z,10.40
2023-02-21T16:09:01.932Z,10.40
2023-02-21T16:11:42.563Z,10.40
2023-02-21T16:14:28.086Z,10.30
2023-02-21T16:17:05.808Z,10.30
2023-02-21T16:19:34.357Z,10.30
2023-02-21T16:22:25.115Z,10.30
2023-02-21T16:25:11.790Z,10.30
2023-02-21T16:27:40.173Z,10.30
2023-02-21T16:30:11.502Z,10.20
2023-02-21T16:32:39.607Z,10.20
2023-02-21T16:35:06.842Z,10.20
2023-02-21T16:37:33.642Z,10.20
2023-02-21T16:40:01.356Z,10.20
2023-02-21T16:42:28.340Z,10.20
2023-02-21T16:44:55.134Z,10.20
2023-02-21T16:47:22.240Z,10.20
2023-02-21T16:49:49.039Z,10.20
2023-02-21T16:52:17.671Z,10.20
2023-02-21T16:54:44.609Z,10.20
2023-02-21T16:57:11.726Z,10.20
2023-02-21T16:59:38.575Z,10.20
2023-02-21T17:02:06.670Z,10.20
2023-02-21T17:04:33.949Z,10.20
2023-02-21T17:07:04.300Z,10.10
2023-02-21T17:09:39.107Z,10.10
2023-02-21T17:12:07.001Z,10.10
2023-02-21T17:14:34.683Z,10.10
2023-02-21T17:17:01.517Z,10.10
2023-02-21T17:19:28.375Z,10.00
2023-02-21T17:21:58.229Z,10.00
2023-02-21T17:24:25.131Z,10.00
2023-02-21T17:26:53.770Z,10.00
2023-02-21T17:29:21.767Z,10.00
2023-02-21T17:31:53.695Z,10.00
2023-02-21T17:34:20.706Z,10.00
2023-02-21T17:36:53.924Z,10.00
2023-02-21T17:39:21.359Z,10.00
2023-02-21T17:41:49.069Z,10.00
2023-02-21T17:44:17.950Z,9.90
2023-02-21T17:46:53.271Z,9.90
2023-02-21T17:49:23.285Z,9.90
2023-02-21T17:51:50.947Z,9.90
2023-02-21T17:54:20.679Z,9.90
2023-02-21T17:56:47.969Z,9.90
2023-02-21T17:59:15.400Z,9.90
2023-02-21T18:01:42.517Z,9.80
2023-02-21T18:04:09.943Z,9.90
2023-02-21T18:06:37.124Z,9.90
2023-02-21T18:09:05.867Z,9.80
2023-02-21T18:11:32.929Z,9.80
2023-02-21T18:13:59.707Z,9.80
2023-02-21T18:16:26.529Z,9.80
2023-02-21T18:18:53.300Z,9.80
2023-02-21T18:21:23.211Z,9.80
2023-02-21T18:23:51.797Z,9.80
2023-02-21T18:26:18.867Z,9.80
2023-02-21T18:28:45.670Z,9.80
2023-02-21T18:31:17.291Z,9.80
2023-02-21T18:33:44.860Z,9.80
2023-02-21T18:36:11.903Z,9.80
2023-02-21T18:38:40.775Z,9.80
2023-02-21T18:41:12.700Z,9.80
2023-02-21T18:43:40.788Z,9.80
2023-02-21T18:46:12.889Z,9.80
2023-02-21T18:48:43.300Z,9.80
2023-02-21T18:51:11.972Z,9.80
2023-02-21T18:53:38.942Z,9.80
2023-02-21T18:56:11.440Z,9.80
2023-02-21T18:58:39.020Z,9.80
2023-02-21T19:01:07.065Z,9.80
2023-02-21T19:03:34.239Z,9.80
2023-02-21T19:06:01.338Z,9.70
2023-02-21T19:08:28.239Z,9.80
2023-02-21T19:10:55.179Z,9.70
2023-02-21T19:13:22.052Z,9.70
2023-02-21T19:15:48.858Z,9.70
2023-02-21T19:18:16.555Z,9.70
2023-02-21T19:20:43.830Z,9.70
2023-02-21T19:23:12.059Z,9.70
2023-02-21T19:25:39.594Z,9.70
2023-02-21T19:28:07.200Z,9.70
2023-02-21T19:30:36.624Z,9.70
2023-02-21T19:33:06.130Z,9.60
2023-02-21T19:35:34.416Z,9.70
2023-02-21T19:38:06.382Z,9.70
2023-02-21T19:40:34.410Z,9.60
2023-02-21T19:43:01.275Z,9.60
2023-02-21T19:45:28.272Z,9.60
2023-02-21T19:47:55.184Z,9.60
2023-02-21T19:50:22.039Z,9.60
2023-02-21T19:52:58.872Z,9.60
2023-02-21T19:55:27.770Z,9.60
2023-02-21T19:57:54.726Z,9.50
2023-02-21T20:00:22.050Z,9.60
2023-02-21T20:02:49.272Z,9.60
2023-02-21T20:05:16.753Z,9.50
2023-02-21T20:07:44.120Z,9.60
2023-02-21T20:10:12.799Z,9.60
2023-02-21T20:12:39.686Z,9.60
2023-02-21T20:15:07.405Z,9.60
2023-02-21T20:17:38.150Z,9.60
2023-02-21T20:20:10.348Z,9.50
2023-02-21T20:22:37.602Z,9.50
2023-02-21T20:25:05.378Z,9.50
2023-02-21T20:27:32.328Z,9.50
2023-02-21T20:29:59.294Z,9.40
2023-02-21T20:32:26.644Z,9.40
2023-02-21T20:34:56.687Z,9.40
2023-02-21T20:37:24.590Z,9.40
2023-02-21T20:39:51.478Z,9.40
2023-02-21T20:42:20.237Z,9.40
2023-02-21T20:44:48.318Z,9.40
2023-02-21T20:47:15.299Z,9.40
2023-02-21T20:49:46.566Z,9.40
2023-02-21T20:52:14.901Z,9.40
2023-02-21T20:54:42.485Z,9.30
2023-02-21T20:57:10.130Z,9.40
2023-02-21T20:59:39.283Z,9.30
2023-02-21T21:02:08.063Z,9.30
2023-02-21T21:04:38.370Z,9.30
2023-02-21T21:07:08.986Z,9.30
2023-02-21T21:09:37.644Z,9.30
2023-02-21T21:12:07.658Z,9.30
2023-02-21T21:14:39.670Z,9.20
2023-02-21T21:17:07.323Z,9.30
2023-02-21T21:19:34.989Z,9.30
2023-02-21T21:22:05.014Z,9.30
2023-02-21T21:24:32.208Z,9.30
2023-02-21T21:27:06.249Z,9.20
2023-02-21T21:29:36.521Z,9.20
2023-02-21T21:32:05.386Z,9.20
2023-02-21T21:34:33.562Z,9.20
2023-02-21T21:37:03.699Z,9.20
2023-02-21T21:39:31.628Z,9.20
2023-02-21T21:42:08.608Z,9.10
2023-02-21T21:44:40.079Z,9.10
2023-02-21T21:47:08.051Z,9.10
2023-02-21T21:49:35.331Z,9.10
2023-02-21T21:52:04.566Z,9.20
2023-02-21T21:54:36.034Z,9.10
2023-02-21T21:57:04.548Z,9.10
2023-02-21T21:59:32.653Z,9.10
2023-02-21T22:01:59.982Z,9.10
2023-02-21T22:04:27.236Z,9.10
2023-02-21T22:06:55.715Z,9.10
2023-02-21T22:09:23.216Z,9.10
2023-02-21T22:11:50.794Z,9.10
2023-02-21T22:14:19.825Z,9.10
2023-02-21T22:16:48.361Z,9.10
2023-02-21T22:19:16.436Z,9.10
2023-02-21T22:21:44.149Z,9.10
2023-02-21T22:24:15.282Z,9.10
2023-02-21T22:26:44.859Z,9.10
2023-02-21T22:29:15.589Z,9.10
2023-02-21T22:31:44.109Z,9.00
2023-02-21T22:34:22.847Z,9.00
2023-02-21T22:36:55.297Z,9.00
2023-02-21T22:39:22.694Z,9.00
2023-02-21T22:41:49.547Z,9.00
2023-02-21T22:44:17.114Z,9.00
2023-02-21T22:46:46.541Z,8.90
2023-02-21T22:49:16.681Z,8.80
2023-02-21T22:51:44.422Z,8.80
2023-02-21T22:54:16.130Z,8.80
2023-02-21T22:56:50.828Z,8.70
2023-02-21T22:59:19.331Z,8.60
2023-02-21T23:01:46.431Z,8.60
2023-02-21T23:04:18.864Z,8.50
2023-02-21T23:06:45.558Z,8.50
2023-02-21T23:09:14.279Z,8.50
2023-02-21T23:11:54.242Z,8.40
2023-02-21T23:14:24.263Z,8.30
2023-02-21T23:16:54.803Z,8.30
2023-02-21T23:19:23.332Z,8.20
2023-02-21T23:21:52.329Z,8.20
2023-02-21T23:24:20.657Z,8.20
2023-02-21T23:26:49.156Z,8.20
2023-02-21T23:29:25.287Z,8.20
2023-02-21T23:31:56.768Z,8.20
2023-02-21T23:34:23.655Z,8.20
2023-02-21T23:36:50.469Z,8.20
2023-02-21T23:39:17.301Z,8.20
2023-02-21T23:41:48.905Z,8.20
2023-02-21T23:44:16.277Z,8.20
2023-02-21T23:46:44.814Z,8.20
2023-02-21T23:49:15.711Z,8.20
2023-02-21T23:51:44.061Z,8.10
2023-02-21T23:54:11.831Z,8.10
2023-02-21T23:56:40.293Z,8.10
2023-02-21T23:59:07.736Z,8.10
